Cheboygan, MI (49721)

4:11 AM EDT on April 28, 2015 (GMT -0400)
Wildcat North | | Change Station
CLOSE
Current Station
Personal Weather Station
Location: Cheboygan, MI
Elevation: 640 ft
Nearby Weather Stations

Elev 640 ft 45.58 °N, 84.46 °W | Updated 10 seconds ago

Overcast
Overcast
41.5 °F
Feels Like 42 °F
N
0.0
Wind Variable Wind from North
Gusts 0.0 mph

Today
High -- | Low -- °F
--% Chance of Precip.
Yesterday
High -- | Low -- °F
Precip. -- in
6:30 AM 8:40 PM
Waxing Gibbous, 72% visible
Pressure 30.13 in
Visibility 10.0 miles
Clouds Overcast 3800 ft
Windchill 42 °F
Dew Point 36 °F
Humidity 82%
Rainfall 0.00 in
Snow Depth Not available.
UV 0.0 out of 12
Pollen 10.00 out of 12
Air Quality Not available.
Flu Activity Regional
METAR KSLH 280755Z AUTO 32003KT 10SM OVC038 04/01 A3013 RMK AO2 T00460013

More Conditions Fewer Conditions

Pressure 30.13 in
Visibility 10.0 miles
Clouds Overcast 3800 ft
Windchill 42 °F
Dew Point 36 °F
Humidity 82%
Rainfall 0.00 in
Snow Depth Not available.
UV 0.0 out of 12
Pollen 10.00 out of 12
Air Quality Not available.
Flu Activity Regional
METAR KSLH 280755Z AUTO 32003KT 10SM OVC038 04/01 A3013 RMK AO2 T00460013

More Conditions Fewer Conditions

Nowcast | as of 4:00 am EDT on April 28, 2015

At 5 am...cloudy. Temperature 40. Light winds. At 7 am...mostly cloudy. Temperature 40. Light winds. At 9 am...mostly cloudy. Temperature 41. Light winds. At 11 am...mostly cloudy. Temperature 44. Light winds.

×

10-Day Weather Forecast

Almanac

Astronomy

Apr. 28, 2015 Rise Set
Actual Time
Civil Twilight
Nautical Twilight
Astronomical Twilight
Moon
Length of Visible Light
Length of Day
Tomorrow will be .
, % of the Moon is Illuminated

Today's Extremes

State Highs State Lows

Community

WunderPhotos

Upload Photos

1,817,597 photos uploaded!

WunderBlogs® & News

Nearby

Air Quality

  Air Quality AQ Index Pollutant
Not available.

Snow Depth

Station Depth Elevation

Earthquake Activity

City Distance Mag. Time & Date
Minimum magnitude displayed is 2.5.

Coastal Water Temperatures

Place Temperature

Stations

Nearby Weather Stations

Station Location Temp. Windchill Dew Point Humidity Wind Precip. Elev Updated Type